createdAt,value
2018-12-12T00:02:19.385Z,19.80
2018-12-12T00:04:50.222Z,19.80
2018-12-12T00:07:19.793Z,19.80
2018-12-12T00:09:48.662Z,19.80
2018-12-12T00:12:17.437Z,19.80
2018-12-12T00:14:46.323Z,19.80
2018-12-12T00:17:15.081Z,19.80
2018-12-12T00:19:43.915Z,19.80
2018-12-12T00:22:12.681Z,19.70
2018-12-12T00:24:41.463Z,19.80
2018-12-12T00:27:10.256Z,19.80
2018-12-12T00:29:39.014Z,19.80
2018-12-12T00:32:07.878Z,19.80
2018-12-12T00:34:36.675Z,19.80
2018-12-12T00:37:05.470Z,19.80
2018-12-12T00:39:34.262Z,19.80
2018-12-12T00:42:03.057Z,19.80
2018-12-12T00:44:31.840Z,19.70
2018-12-12T00:47:01.058Z,19.80
2018-12-12T00:49:29.831Z,19.80
2018-12-12T00:51:58.720Z,19.70
2018-12-12T00:54:27.885Z,19.70
2018-12-12T00:56:56.682Z,19.70
2018-12-12T00:59:25.462Z,19.70
2018-12-12T01:01:54.501Z,19.70
2018-12-12T01:04:23.285Z,19.70
2018-12-12T01:06:52.106Z,19.70
2018-12-12T01:09:20.975Z,19.70
2018-12-12T01:11:55.255Z,19.70
2018-12-12T01:14:24.037Z,19.70
2018-12-12T01:16:52.814Z,19.70
2018-12-12T01:19:21.660Z,19.70
2018-12-12T01:21:50.451Z,19.70
2018-12-12T01:24:19.223Z,19.70
2018-12-12T01:26:49.001Z,19.70
2018-12-12T01:29:17.776Z,19.70
2018-12-12T01:31:46.639Z,19.70
2018-12-12T01:34:15.428Z,19.70
2018-12-12T01:36:44.298Z,19.70
2018-12-12T01:39:13.143Z,19.70
2018-12-12T01:41:41.982Z,19.80
2018-12-12T01:44:10.852Z,19.70
2018-12-12T01:46:39.618Z,19.70
2018-12-12T01:49:08.490Z,19.80
2018-12-12T01:51:37.266Z,19.70
2018-12-12T01:54:06.142Z,19.70
2018-12-12T01:56:34.915Z,19.70
2018-12-12T01:59:03.709Z,19.70
2018-12-12T02:01:32.450Z,19.70
2018-12-12T02:04:01.213Z,19.70
2018-12-12T02:06:29.982Z,19.70
2018-12-12T02:08:58.741Z,19.70
2018-12-12T02:11:27.594Z,19.70
2018-12-12T02:13:56.358Z,19.70
2018-12-12T02:16:25.201Z,19.70
2018-12-12T02:18:54.382Z,19.80
2018-12-12T02:21:23.195Z,19.70
2018-12-12T02:23:51.961Z,19.70
2018-12-12T02:26:20.996Z,19.70
2018-12-12T02:28:49.725Z,19.70
2018-12-12T02:31:18.615Z,19.70
2018-12-12T02:33:47.375Z,19.70
2018-12-12T02:36:16.170Z,19.70
2018-12-12T02:38:44.886Z,19.70
2018-12-12T02:41:13.633Z,19.70
2018-12-12T02:43:42.416Z,19.70
2018-12-12T02:46:11.170Z,19.70
2018-12-12T02:48:39.944Z,19.70
2018-12-12T02:51:08.763Z,19.70
2018-12-12T02:53:37.522Z,19.70
2018-12-12T02:56:06.344Z,19.70
2018-12-12T02:58:35.103Z,19.70
2018-12-12T03:01:03.953Z,19.70
2018-12-12T03:03:32.788Z,19.70
2018-12-12T03:06:01.546Z,19.70
2018-12-12T03:08:30.307Z,19.70
2018-12-12T03:10:59.174Z,19.70
2018-12-12T03:13:28.077Z,19.70
2018-12-12T03:15:57.016Z,19.70
2018-12-12T03:18:25.778Z,19.70
2018-12-12T03:20:54.606Z,19.70
2018-12-12T03:23:23.397Z,19.70
2018-12-12T03:25:52.654Z,19.70
2018-12-12T03:28:21.526Z,19.70
2018-12-12T03:30:50.351Z,19.70
2018-12-12T03:33:19.122Z,19.70
2018-12-12T03:35:48.001Z,19.70
2018-12-12T03:38:16.812Z,19.70
2018-12-12T03:40:45.930Z,19.70
2018-12-12T03:43:14.737Z,19.70
2018-12-12T03:45:43.535Z,19.70
2018-12-12T03:48:12.373Z,19.70
2018-12-12T03:50:41.250Z,19.70
2018-12-12T03:53:10.101Z,19.70
2018-12-12T03:55:38.874Z,19.70
2018-12-12T03:58:07.718Z,19.70
2018-12-12T04:00:36.489Z,19.70
2018-12-12T04:03:05.256Z,19.70
2018-12-12T04:05:34.039Z,19.70
2018-12-12T04:08:04.101Z,19.70
2018-12-12T04:10:32.885Z,19.70
2018-12-12T04:13:01.650Z,19.70
2018-12-12T04:15:30.608Z,19.70
2018-12-12T04:17:59.470Z,19.70
2018-12-12T04:20:28.243Z,19.70
2018-12-12T04:22:59.132Z,19.70
2018-12-12T04:25:27.930Z,19.70
2018-12-12T04:27:56.691Z,19.70
2018-12-12T04:30:25.486Z,19.70
2018-12-12T04:32:54.264Z,19.70
2018-12-12T04:35:23.090Z,19.70
2018-12-12T04:37:51.866Z,19.70
2018-12-12T04:40:20.658Z,19.70
2018-12-12T04:42:49.423Z,19.60
2018-12-12T04:45:18.182Z,19.70
2018-12-12T04:47:46.968Z,19.70
2018-12-12T04:50:15.908Z,19.70
2018-12-12T04:52:44.681Z,19.60
2018-12-12T04:55:13.458Z,19.60
2018-12-12T04:57:42.226Z,19.60
2018-12-12T05:00:11.893Z,19.60
2018-12-12T05:02:40.745Z,19.60
2018-12-12T05:05:09.532Z,19.60
2018-12-12T05:07:38.318Z,19.60
2018-12-12T05:10:07.274Z,19.60
2018-12-12T05:12:36.064Z,19.60
2018-12-12T05:15:05.403Z,19.60
2018-12-12T05:17:35.218Z,19.60
2018-12-12T05:20:04.377Z,19.60
2018-12-12T05:22:33.163Z,19.60
2018-12-12T05:25:01.947Z,19.60
2018-12-12T05:27:30.722Z,19.60
2018-12-12T05:29:59.506Z,19.60
2018-12-12T05:32:28.286Z,19.50
2018-12-12T05:34:57.084Z,19.50
2018-12-12T05:37:25.871Z,19.60
2018-12-12T05:39:54.649Z,19.50
2018-12-12T05:42:23.463Z,19.60
2018-12-12T05:44:53.285Z,19.60
2018-12-12T05:47:22.077Z,19.60
2018-12-12T05:49:50.853Z,19.60
2018-12-12T05:52:19.626Z,19.50
2018-12-12T05:54:48.496Z,19.50
2018-12-12T05:57:17.435Z,19.50
2018-12-12T05:59:46.217Z,19.50
2018-12-12T06:02:15.130Z,19.50
2018-12-12T06:04:43.919Z,19.60
2018-12-12T06:07:13.798Z,19.60
2018-12-12T06:09:42.583Z,19.60
2018-12-12T06:12:11.446Z,19.60
2018-12-12T06:14:40.231Z,19.60
2018-12-12T06:17:10.217Z,19.60
2018-12-12T06:19:39.009Z,19.60
2018-12-12T06:22:08.406Z,19.60
2018-12-12T06:24:38.412Z,19.60
2018-12-12T06:27:07.656Z,19.60
2018-12-12T06:29:36.547Z,19.60
2018-12-12T06:32:05.441Z,19.60
2018-12-12T06:34:34.230Z,19.60
2018-12-12T06:37:03.069Z,19.60
2018-12-12T06:39:31.845Z,19.60
2018-12-12T06:42:00.637Z,19.60
2018-12-12T06:44:29.422Z,19.60
2018-12-12T06:46:58.213Z,19.60
2018-12-12T06:49:27.075Z,19.60
2018-12-12T06:51:55.854Z,19.60
2018-12-12T06:54:24.626Z,19.70
2018-12-12T06:56:53.514Z,19.70
2018-12-12T06:59:22.297Z,19.70
2018-12-12T07:01:51.123Z,19.60
2018-12-12T07:04:19.913Z,19.60
2018-12-12T07:06:48.710Z,19.60
2018-12-12T07:09:17.494Z,19.60
2018-12-12T07:11:46.290Z,19.60
2018-12-12T07:14:15.069Z,19.60
2018-12-12T07:16:43.967Z,19.60
2018-12-12T07:19:12.833Z,19.60
2018-12-12T07:21:41.831Z,19.60
2018-12-12T07:24:10.727Z,19.60
2018-12-12T07:26:39.517Z,19.60
2018-12-12T07:29:08.364Z,19.60
2018-12-12T07:31:37.159Z,19.60
2018-12-12T07:34:06.047Z,19.50
2018-12-12T07:36:34.836Z,19.60
2018-12-12T07:39:06.324Z,19.60
2018-12-12T07:41:35.650Z,19.50
2018-12-12T07:44:06.486Z,19.50
2018-12-12T07:46:42.417Z,19.50
2018-12-12T07:49:13.713Z,19.50
2018-12-12T07:52:02.275Z,19.50
2018-12-12T07:54:31.094Z,19.50
2018-12-12T07:56:59.965Z,19.50
2018-12-12T07:59:28.761Z,19.50
2018-12-12T08:01:57.570Z,19.50
2018-12-12T08:04:26.456Z,19.50
2018-12-12T08:06:56.312Z,19.50
2018-12-12T08:09:25.260Z,19.50
2018-12-12T08:11:54.155Z,19.50
2018-12-12T08:14:22.983Z,19.50
2018-12-12T08:16:51.773Z,19.50
2018-12-12T08:19:20.567Z,19.50
2018-12-12T08:21:49.371Z,19.50
2018-12-12T08:24:18.186Z,19.50
2018-12-12T08:26:46.976Z,19.60
2018-12-12T08:29:15.789Z,19.50
2018-12-12T08:31:44.576Z,19.60
2018-12-12T08:34:13.376Z,19.50
2018-12-12T08:36:42.221Z,19.60
2018-12-12T08:39:11.030Z,19.60
2018-12-12T08:41:39.819Z,19.60
2018-12-12T08:44:08.622Z,19.50
2018-12-12T08:46:37.412Z,19.60
2018-12-12T08:49:06.346Z,19.50
2018-12-12T08:51:35.150Z,19.60
2018-12-12T08:54:04.035Z,19.60
2018-12-12T08:56:32.820Z,19.60
2018-12-12T08:59:01.615Z,19.60
2018-12-12T09:01:30.677Z,19.60
2018-12-12T09:03:59.479Z,19.60
2018-12-12T09:06:28.311Z,19.60
2018-12-12T09:08:57.224Z,19.60
2018-12-12T09:11:26.010Z,19.60
2018-12-12T09:13:54.934Z,19.70
2018-12-12T09:16:23.712Z,19.70
2018-12-12T09:18:53.008Z,19.70
2018-12-12T09:21:21.796Z,19.70
2018-12-12T09:23:50.655Z,19.70
2018-12-12T09:26:19.449Z,19.70
2018-12-12T09:28:48.269Z,19.70
2018-12-12T09:31:19.011Z,19.70
2018-12-12T09:33:49.844Z,19.70
2018-12-12T09:36:18.684Z,19.70
2018-12-12T09:38:47.469Z,19.70
2018-12-12T09:41:16.271Z,19.70
2018-12-12T09:43:45.053Z,19.70
2018-12-12T09:46:13.905Z,19.70
2018-12-12T09:48:42.725Z,19.70
2018-12-12T09:51:11.511Z,19.70
2018-12-12T09:53:42.240Z,19.70
2018-12-12T09:56:11.049Z,19.70
2018-12-12T09:58:39.877Z,19.70
2018-12-12T10:01:08.777Z,19.70
2018-12-12T10:03:37.567Z,19.70
2018-12-12T10:06:06.357Z,19.70
2018-12-12T10:08:35.155Z,19.70
2018-12-12T10:11:04.097Z,19.70
2018-12-12T10:13:32.883Z,19.80
2018-12-12T10:16:01.759Z,19.80
2018-12-12T10:18:30.568Z,19.80
2018-12-12T10:20:59.362Z,19.80
2018-12-12T10:23:28.282Z,19.80
2018-12-12T10:25:57.066Z,19.90
2018-12-12T10:28:25.849Z,20.00
2018-12-12T10:30:54.634Z,20.00
2018-12-12T10:33:23.524Z,20.00
2018-12-12T10:35:52.305Z,20.00
2018-12-12T10:38:21.091Z,20.00
2018-12-12T10:40:49.874Z,20.00
2018-12-12T10:43:18.750Z,20.00
2018-12-12T10:45:47.540Z,20.00
2018-12-12T10:48:16.324Z,20.00
2018-12-12T10:50:45.181Z,20.00
2018-12-12T10:53:14.058Z,20.10
2018-12-12T10:55:42.841Z,20.10
2018-12-12T10:58:11.667Z,20.20
2018-12-12T11:00:42.462Z,20.20
2018-12-12T11:03:16.726Z,20.20
2018-12-12T11:05:45.511Z,20.20
2018-12-12T11:08:14.448Z,20.10
2018-12-12T11:10:43.511Z,20.30
2018-12-12T11:13:13.523Z,20.20
2018-12-12T11:15:42.362Z,20.20
2018-12-12T11:18:11.218Z,20.10
2018-12-12T11:20:40.003Z,20.10
2018-12-12T11:23:08.798Z,20.00
2018-12-12T11:25:37.589Z,20.00
2018-12-12T11:28:06.409Z,20.00
2018-12-12T11:30:35.182Z,20.00
2018-12-12T11:33:04.198Z,20.00
2018-12-12T11:35:32.994Z,20.00
2018-12-12T11:38:01.780Z,20.00
2018-12-12T11:40:30.550Z,19.90
2018-12-12T11:42:59.369Z,19.90
2018-12-12T11:45:28.333Z,19.90
2018-12-12T11:47:57.135Z,19.90
2018-12-12T11:50:25.900Z,19.90
2018-12-12T11:52:54.692Z,19.90
2018-12-12T11:55:23.482Z,19.90
2018-12-12T11:57:52.321Z,19.80
2018-12-12T12:00:21.102Z,19.80
2018-12-12T12:02:49.877Z,19.90
2018-12-12T12:05:18.730Z,19.90
2018-12-12T12:07:47.500Z,20.00
2018-12-12T12:10:16.369Z,20.00
2018-12-12T12:12:45.154Z,20.00
2018-12-12T12:15:15.110Z,20.00
2018-12-12T12:17:43.891Z,20.00
2018-12-12T12:20:12.782Z,19.90
2018-12-12T12:22:41.566Z,19.90
2018-12-12T12:25:10.403Z,19.90
2018-12-12T12:27:39.179Z,19.80
2018-12-12T12:30:08.697Z,19.80
2018-12-12T12:32:37.476Z,19.80
2018-12-12T12:35:06.470Z,19.70
2018-12-12T12:37:35.241Z,19.70
2018-12-12T12:40:05.869Z,19.70
2018-12-12T12:42:34.770Z,19.70
2018-12-12T12:45:03.836Z,19.80
2018-12-12T12:47:32.668Z,19.80
2018-12-12T12:50:01.461Z,19.80
2018-12-12T12:52:31.142Z,19.80
2018-12-12T12:54:59.986Z,19.80
2018-12-12T12:57:28.770Z,19.70
2018-12-12T12:59:57.553Z,19.70
2018-12-12T13:02:31.611Z,19.70
2018-12-12T13:05:00.441Z,19.70
2018-12-12T13:07:29.276Z,19.70
2018-12-12T13:09:59.358Z,19.70
2018-12-12T13:12:29.752Z,19.70
2018-12-12T13:14:59.702Z,19.70
2018-12-12T13:17:28.626Z,19.70
2018-12-12T13:19:58.805Z,19.70
2018-12-12T13:22:27.579Z,19.70
2018-12-12T13:24:56.386Z,19.70
2018-12-12T13:27:25.188Z,19.70
2018-12-12T13:29:54.033Z,19.70
2018-12-12T13:32:22.824Z,19.70
2018-12-12T13:34:51.667Z,19.60
2018-12-12T13:37:20.545Z,19.70
2018-12-12T13:39:49.341Z,19.70
2018-12-12T13:42:18.230Z,19.60
2018-12-12T13:44:47.088Z,19.60
2018-12-12T13:47:17.457Z,19.60
2018-12-12T13:49:46.586Z,19.60
2018-12-12T13:52:15.540Z,19.60
2018-12-12T13:54:44.324Z,19.60
2018-12-12T13:57:13.318Z,19.60
2018-12-12T13:59:42.225Z,19.60
2018-12-12T14:02:11.010Z,19.60
2018-12-12T14:04:39.796Z,19.60
2018-12-12T14:07:08.615Z,19.60
2018-12-12T14:09:37.480Z,19.60
2018-12-12T14:12:06.354Z,19.60
2018-12-12T14:14:35.137Z,19.60
2018-12-12T14:17:04.321Z,19.60
2018-12-12T14:19:34.238Z,19.60
2018-12-12T14:22:03.027Z,19.60
2018-12-12T14:24:31.890Z,19.50
2018-12-12T14:27:00.674Z,19.60
2018-12-12T14:29:29.458Z,19.60
2018-12-12T14:31:58.254Z,19.60
2018-12-12T14:34:29.378Z,19.50
2018-12-12T14:36:57.826Z,19.60
2018-12-12T14:39:26.662Z,19.50
2018-12-12T14:41:55.448Z,19.50
2018-12-12T14:44:24.225Z,19.50
2018-12-12T14:46:53.310Z,19.50
2018-12-12T14:49:22.710Z,19.50
2018-12-12T14:51:51.500Z,19.50
2018-12-12T14:54:20.555Z,19.50
2018-12-12T14:56:49.319Z,19.50
2018-12-12T14:59:18.122Z,19.50
2018-12-12T15:01:47.011Z,19.50
2018-12-12T15:04:15.787Z,19.50
2018-12-12T15:06:44.590Z,19.50
2018-12-12T15:09:13.389Z,19.50
2018-12-12T15:11:43.670Z,19.40
2018-12-12T15:14:13.895Z,19.50
2018-12-12T15:16:42.922Z,19.50
2018-12-12T15:19:11.726Z,19.50
2018-12-12T15:21:40.501Z,19.50
2018-12-12T15:24:09.856Z,19.50
2018-12-12T15:26:38.905Z,19.50
2018-12-12T15:29:07.725Z,19.50
2018-12-12T15:31:37.351Z,19.40
2018-12-12T15:34:06.172Z,19.50
2018-12-12T15:36:35.822Z,19.50
2018-12-12T15:39:07.386Z,19.50
2018-12-12T15:41:38.293Z,19.50
2018-12-12T15:44:07.077Z,19.40
2018-12-12T15:46:35.910Z,19.50
2018-12-12T15:49:04.774Z,19.40
2018-12-12T15:51:33.558Z,19.50
2018-12-12T15:54:03.693Z,19.40
2018-12-12T15:56:32.490Z,19.50
2018-12-12T15:59:01.343Z,19.40
2018-12-12T16:01:30.150Z,19.50
2018-12-12T16:03:58.937Z,19.50
2018-12-12T16:06:27.773Z,19.40
2018-12-12T16:08:56.560Z,19.50
2018-12-12T16:11:27.172Z,19.50
2018-12-12T16:13:55.951Z,19.50
2018-12-12T16:16:24.764Z,19.50
2018-12-12T16:18:53.548Z,19.50
2018-12-12T16:21:22.370Z,19.50
2018-12-12T16:23:51.169Z,19.50
2018-12-12T16:26:19.970Z,19.60
2018-12-12T16:28:50.013Z,19.50
2018-12-12T16:31:18.883Z,19.60
2018-12-12T16:33:47.813Z,19.60
2018-12-12T16:36:16.604Z,19.50
2018-12-12T16:38:45.438Z,19.60
2018-12-12T16:41:14.258Z,19.50
2018-12-12T16:43:43.100Z,19.60
2018-12-12T16:46:13.865Z,19.50
2018-12-12T16:48:42.742Z,19.50
2018-12-12T16:51:11.937Z,19.60
2018-12-12T16:53:40.741Z,19.60
2018-12-12T16:56:09.529Z,19.60
2018-12-12T16:58:38.337Z,19.60
2018-12-12T17:01:07.186Z,19.60
2018-12-12T17:03:35.988Z,19.60
2018-12-12T17:06:04.849Z,19.60
2018-12-12T17:08:33.659Z,19.60
2018-12-12T17:11:02.461Z,19.60
2018-12-12T17:13:31.287Z,19.60
2018-12-12T17:16:00.066Z,19.60
2018-12-12T17:18:28.975Z,19.60
2018-12-12T17:20:57.762Z,19.50
2018-12-12T17:23:27.321Z,19.60
2018-12-12T17:25:58.115Z,19.60
2018-12-12T17:28:26.873Z,19.50
2018-12-12T17:30:55.669Z,19.60
2018-12-12T17:33:25.000Z,19.60
2018-12-12T17:35:53.809Z,19.60
2018-12-12T17:38:22.603Z,19.60
2018-12-12T17:40:51.370Z,19.60
2018-12-12T17:43:20.746Z,19.60
2018-12-12T17:45:50.014Z,19.60
2018-12-12T17:48:18.809Z,19.60
2018-12-12T17:50:47.611Z,19.70
2018-12-12T17:53:17.453Z,19.60
2018-12-12T17:55:46.263Z,19.70
2018-12-12T17:58:15.058Z,19.60
2018-12-12T18:00:44.494Z,19.60
2018-12-12T18:03:15.251Z,19.60
2018-12-12T18:06:00.936Z,19.60
2018-12-12T18:08:29.758Z,19.60
2018-12-12T18:10:58.614Z,19.60
2018-12-12T18:13:27.401Z,19.60
2018-12-12T18:15:58.117Z,19.60
2018-12-12T18:18:28.849Z,19.60
2018-12-12T18:20:57.726Z,19.60
2018-12-12T18:23:28.488Z,19.60
2018-12-12T18:25:59.257Z,19.60
2018-12-12T18:28:28.078Z,19.60
2018-12-12T18:30:56.986Z,19.60
2018-12-12T18:33:27.826Z,19.60
2018-12-12T18:36:02.438Z,19.70
2018-12-12T18:38:31.282Z,19.70
2018-12-12T18:41:02.755Z,19.70
2018-12-12T18:43:33.506Z,19.70
2018-12-12T18:46:07.979Z,19.60
2018-12-12T18:48:36.989Z,19.60
2018-12-12T18:51:07.814Z,19.60
2018-12-12T18:53:37.863Z,19.60
2018-12-12T18:56:08.681Z,19.60
2018-12-12T18:58:39.512Z,19.60
2018-12-12T19:01:08.357Z,19.60
2018-12-12T19:03:37.152Z,19.60
2018-12-12T19:06:06.090Z,19.60
2018-12-12T19:08:34.978Z,19.60
2018-12-12T19:11:03.978Z,19.70
2018-12-12T19:13:32.971Z,19.60
2018-12-12T19:16:06.152Z,19.70
2018-12-12T19:18:42.816Z,19.70
2018-12-12T19:21:12.406Z,19.70
2018-12-12T19:23:42.552Z,19.70
2018-12-12T19:26:11.332Z,19.70
2018-12-12T19:28:45.870Z,19.70
2018-12-12T19:31:14.657Z,19.60
2018-12-12T19:33:43.468Z,19.60
2018-12-12T19:36:12.928Z,19.60
2018-12-12T19:38:46.855Z,19.60
2018-12-12T19:41:15.775Z,19.60
2018-12-12T19:43:44.750Z,19.50
2018-12-12T19:46:13.630Z,19.60
2018-12-12T19:48:42.556Z,19.60
2018-12-12T19:51:11.346Z,19.50
2018-12-12T19:53:40.157Z,19.60
2018-12-12T19:56:08.981Z,19.60
2018-12-12T19:58:37.777Z,19.60
2018-12-12T20:01:06.655Z,19.60
2018-12-12T20:03:35.457Z,19.60
2018-12-12T20:06:04.314Z,19.60
2018-12-12T20:08:33.112Z,19.60
2018-12-12T20:11:01.962Z,19.60
2018-12-12T20:13:31.901Z,19.60
2018-12-12T20:16:00.684Z,19.60
2018-12-12T20:18:29.511Z,19.60
2018-12-12T20:20:58.307Z,19.60
2018-12-12T20:23:27.105Z,19.60
2018-12-12T20:25:55.982Z,19.60
2018-12-12T20:28:24.777Z,19.60
2018-12-12T20:30:53.583Z,19.60
2018-12-12T20:33:22.472Z,19.60
2018-12-12T20:35:51.398Z,19.60
2018-12-12T20:38:20.190Z,19.70
2018-12-12T20:40:49.030Z,19.60
2018-12-12T20:43:17.911Z,19.70
2018-12-12T20:45:46.701Z,19.60
2018-12-12T20:48:15.509Z,19.60
2018-12-12T20:50:44.324Z,19.60
2018-12-12T20:53:13.169Z,19.60
2018-12-12T20:55:41.990Z,19.60
2018-12-12T20:58:10.793Z,19.60
2018-12-12T21:00:39.730Z,19.60
2018-12-12T21:03:08.527Z,19.60
2018-12-12T21:05:37.330Z,19.60
2018-12-12T21:08:06.299Z,19.60
2018-12-12T21:10:35.210Z,19.60
2018-12-12T21:13:04.251Z,19.60
2018-12-12T21:15:33.054Z,19.60
2018-12-12T21:18:01.986Z,19.60
2018-12-12T21:20:30.881Z,19.60
2018-12-12T21:22:59.670Z,19.60
2018-12-12T21:25:31.225Z,19.60
2018-12-12T21:28:00.011Z,19.60
2018-12-12T21:30:28.900Z,19.60
2018-12-12T21:32:57.682Z,19.60
2018-12-12T21:35:26.613Z,19.60
2018-12-12T21:37:55.397Z,19.60
2018-12-12T21:40:24.192Z,19.60
2018-12-12T21:42:53.063Z,19.60
2018-12-12T21:45:21.948Z,19.60
2018-12-12T21:47:51.878Z,19.60
2018-12-12T21:50:20.650Z,19.60
2018-12-12T21:52:49.434Z,19.60
2018-12-12T21:55:18.232Z,19.60
2018-12-12T21:57:47.010Z,19.60
2018-12-12T22:00:15.958Z,19.60
2018-12-12T22:02:44.741Z,19.60
2018-12-12T22:05:13.562Z,19.60
2018-12-12T22:07:42.332Z,19.60
2018-12-12T22:10:11.117Z,19.60
2018-12-12T22:12:39.981Z,19.60
2018-12-12T22:15:08.926Z,19.60
2018-12-12T22:17:38.900Z,19.60
2018-12-12T22:20:07.789Z,19.70
2018-12-12T22:22:36.561Z,19.70
2018-12-12T22:25:05.898Z,19.70
2018-12-12T22:27:34.670Z,19.70
2018-12-12T22:30:03.927Z,19.70
2018-12-12T22:32:32.766Z,19.70
2018-12-12T22:35:01.642Z,19.70
2018-12-12T22:37:30.422Z,19.70
2018-12-12T22:39:59.284Z,19.60
2018-12-12T22:42:28.116Z,19.70
2018-12-12T22:44:56.962Z,19.60
2018-12-12T22:47:25.745Z,19.60
2018-12-12T22:49:54.530Z,19.70
2018-12-12T22:52:23.289Z,19.70
2018-12-12T22:54:52.061Z,19.70
2018-12-12T22:57:20.839Z,19.70
2018-12-12T22:59:49.622Z,19.70
2018-12-12T23:02:18.394Z,19.70
2018-12-12T23:04:47.166Z,19.70
2018-12-12T23:07:15.937Z,19.70
2018-12-12T23:09:44.726Z,19.70
2018-12-12T23:12:13.582Z,19.70
2018-12-12T23:14:42.374Z,19.70
2018-12-12T23:17:11.146Z,19.60
2018-12-12T23:19:39.930Z,19.60
2018-12-12T23:22:08.880Z,19.70
2018-12-12T23:24:37.647Z,19.70
2018-12-12T23:27:07.658Z,19.70
2018-12-12T23:29:36.432Z,19.70
2018-12-12T23:32:05.215Z,19.70
2018-12-12T23:34:34.194Z,19.70
2018-12-12T23:37:02.990Z,19.70
2018-12-12T23:39:31.832Z,19.70
2018-12-12T23:42:00.602Z,19.70
2018-12-12T23:44:29.428Z,19.70
2018-12-12T23:46:58.206Z,19.60
2018-12-12T23:49:26.967Z,19.60
2018-12-12T23:51:55.814Z,19.60
2018-12-12T23:54:24.590Z,19.60
2018-12-12T23:56:53.355Z,19.60
2018-12-12T23:59:22.138Z,19.60
